createdAt,value
2022-10-18T05:37:58.554Z,70.35
2022-10-18T05:43:19.534Z,70.17
2022-10-18T05:48:40.536Z,70.29
2022-10-18T05:54:01.407Z,70.06
2022-10-18T05:59:22.354Z,70.17
2022-10-18T06:04:43.107Z,69.95
2022-10-18T06:10:04.228Z,70.04
2022-10-18T06:15:24.783Z,69.99
2022-10-18T06:20:45.830Z,69.94
2022-10-18T06:26:09.860Z,69.92
2022-10-18T06:31:30.957Z,70.14
2022-10-18T06:36:55.019Z,69.87
2022-10-18T06:42:21.825Z,70.06
2022-10-18T06:47:43.469Z,69.99
2022-10-18T06:53:06.254Z,70.15
2022-10-18T06:58:27.516Z,70.17
2022-10-18T07:03:49.276Z,70.31
2022-10-18T07:09:10.658Z,70.17
2022-10-18T07:14:31.436Z,70.30
2022-10-18T07:19:52.179Z,70.12
2022-10-18T07:25:12.997Z,70.24
2022-10-18T07:30:34.175Z,70.07
2022-10-18T07:35:55.234Z,69.64
2022-10-18T07:41:16.240Z,69.64
2022-10-18T07:46:37.105Z,69.93
2022-10-18T07:51:57.955Z,70.20
2022-10-18T07:57:18.889Z,70.05
2022-10-18T08:02:39.621Z,70.33
2022-10-18T08:08:03.084Z,69.98
2022-10-18T08:13:26.871Z,70.45
2022-10-18T08:18:47.721Z,70.16
2022-10-18T08:24:08.610Z,70.35
2022-10-18T08:29:31.867Z,70.17
2022-10-18T08:34:53.253Z,70.59
2022-10-18T08:40:14.909Z,70.61
2022-10-18T08:45:43.157Z,70.44
2022-10-18T08:51:06.873Z,70.37
2022-10-18T08:56:27.816Z,70.26
2022-10-18T09:02:06.881Z,70.59
2022-10-18T09:07:51.892Z,70.51
2022-10-18T09:13:28.115Z,70.40
2022-10-18T09:18:58.628Z,70.35
2022-10-18T09:24:25.557Z,70.46
2022-10-18T09:29:49.376Z,70.37
2022-10-18T09:35:31.725Z,70.79
2022-10-18T09:40:57.331Z,70.39
2022-10-18T09:46:21.896Z,70.44
2022-10-18T09:51:44.736Z,70.55
2022-10-18T09:57:26.661Z,70.90
2022-10-18T10:02:47.337Z,70.39
2022-10-18T10:08:08.404Z,71.03
2022-10-18T10:13:29.450Z,70.83
2022-10-18T10:19:20.214Z,70.79
2022-10-18T10:24:50.784Z,70.91
2022-10-18T10:30:34.932Z,71.20
2022-10-18T10:36:01.777Z,71.12
2022-10-18T10:41:24.178Z,71.15
2022-10-18T10:46:48.099Z,71.17
2022-10-18T10:52:33.955Z,71.37
2022-10-18T10:57:56.495Z,71.07
2022-10-18T11:03:29.544Z,71.24
2022-10-18T11:08:53.181Z,71.34
2022-10-18T11:14:27.054Z,71.10
2022-10-18T11:20:07.065Z,71.44
2022-10-18T11:26:06.615Z,70.92
2022-10-18T11:31:48.593Z,70.95
2022-10-18T11:37:31.127Z,71.41
2022-10-18T11:42:59.051Z,71.04
2022-10-18T11:48:56.948Z,71.06
2022-10-18T11:54:47.398Z,70.85
2022-10-18T12:00:23.861Z,70.64
2022-10-18T12:05:47.259Z,70.16
2022-10-18T12:11:41.037Z,70.87
2022-10-18T12:17:40.791Z,70.61
2022-10-18T12:23:01.057Z,70.42
2022-10-18T12:28:49.854Z,70.12
2022-10-18T12:34:22.890Z,70.15
2022-10-18T12:40:09.365Z,69.50
2022-10-18T12:45:35.341Z,69.26
2022-10-18T12:51:20.909Z,69.84
2022-10-18T12:56:44.048Z,69.55
2022-10-18T13:02:05.132Z,69.18
2022-10-18T13:07:41.029Z,68.65
2022-10-18T13:13:38.591Z,68.95
2022-10-18T13:19:28.682Z,69.23
2022-10-18T13:25:11.352Z,69.35
2022-10-18T13:30:47.923Z,69.41
2022-10-18T13:36:22.738Z,69.61
2022-10-18T13:41:47.477Z,69.57
2022-10-18T13:47:14.176Z,69.56
2022-10-18T13:53:38.512Z,69.60
2022-10-18T13:59:26.860Z,69.36
2022-10-18T14:05:23.107Z,69.41
2022-10-18T14:11:02.240Z,69.04
2022-10-18T14:16:58.143Z,69.09
2022-10-18T14:22:28.556Z,69.00
2022-10-18T14:28:02.362Z,69.09
2022-10-18T14:33:37.033Z,69.08
2022-10-18T14:39:04.505Z,68.98
2022-10-18T14:44:31.030Z,69.24
2022-10-18T14:49:57.657Z,69.87
2022-10-18T14:55:23.867Z,69.73
2022-10-18T15:00:48.482Z,69.72
2022-10-18T15:06:18.914Z,69.89
2022-10-18T15:11:41.551Z,69.75
2022-10-18T15:17:21.683Z,70.34
2022-10-18T15:23:01.431Z,70.30
2022-10-18T15:28:32.891Z,70.61
2022-10-18T15:34:22.453Z,70.55
2022-10-18T15:39:43.373Z,70.53
2022-10-18T15:45:22.306Z,71.12
2022-10-18T15:50:44.512Z,70.96
2022-10-18T15:56:24.111Z,71.16
2022-10-18T16:01:45.355Z,71.09
2022-10-18T16:07:06.123Z,71.63
2022-10-18T16:12:27.055Z,71.75
2022-10-18T16:17:48.622Z,71.81
2022-10-18T16:23:17.351Z,72.25
2022-10-18T16:28:39.127Z,72.17
2022-10-18T16:34:01.913Z,72.11
2022-10-18T16:39:23.785Z,72.23
2022-10-18T16:44:45.468Z,72.52
2022-10-18T16:50:08.631Z,72.40
2022-10-18T16:55:30.587Z,72.39
2022-10-18T17:00:52.033Z,72.50
2022-10-18T17:06:17.911Z,72.93
2022-10-18T17:11:38.824Z,73.05
2022-10-18T17:16:59.736Z,73.25
2022-10-18T17:22:20.408Z,73.16
2022-10-18T17:27:42.302Z,72.83
2022-10-18T17:33:03.320Z,73.52
2022-10-18T17:38:24.154Z,73.37
2022-10-18T17:43:44.864Z,73.89
2022-10-18T17:49:05.883Z,73.80
2022-10-18T17:54:26.903Z,73.37
2022-10-18T17:59:48.880Z,73.61
2022-10-18T18:05:09.762Z,73.83
2022-10-18T18:10:32.020Z,73.58
2022-10-18T18:15:52.960Z,73.36
2022-10-18T18:21:14.127Z,73.54
2022-10-18T18:26:35.959Z,73.59
2022-10-18T18:31:57.221Z,73.93
2022-10-18T18:37:18.397Z,73.78
2022-10-18T18:42:39.441Z,73.73
2022-10-18T18:48:00.265Z,74.50
2022-10-18T18:53:21.083Z,73.93
2022-10-18T18:58:44.135Z,73.90
2022-10-18T19:04:07.028Z,73.48
2022-10-18T19:09:28.060Z,73.77
2022-10-18T19:14:49.142Z,73.61
2022-10-18T19:20:12.764Z,73.87
2022-10-18T19:25:33.667Z,73.99
2022-10-18T19:30:56.126Z,73.80
2022-10-18T19:36:16.873Z,73.81
2022-10-18T19:41:37.823Z,73.81
2022-10-18T19:46:59.440Z,73.84
2022-10-18T19:52:20.368Z,73.87
2022-10-18T19:57:41.498Z,73.73
2022-10-18T20:03:02.424Z,73.96
2022-10-18T20:08:24.287Z,73.92
2022-10-18T20:13:45.189Z,73.99
2022-10-18T20:19:07.743Z,74.23
2022-10-18T20:24:28.716Z,74.07
2022-10-18T20:29:49.671Z,74.22
2022-10-18T20:35:10.804Z,73.84
2022-10-18T20:40:32.556Z,73.93
2022-10-18T20:45:58.159Z,73.69
2022-10-18T20:51:20.168Z,73.93
2022-10-18T20:56:41.091Z,73.99
2022-10-18T21:02:02.081Z,73.55
2022-10-18T21:07:22.929Z,73.98
2022-10-18T21:12:43.838Z,73.65
2022-10-18T21:18:04.762Z,73.64
2022-10-18T21:23:25.551Z,73.79
2022-10-18T21:28:46.806Z,73.72
2022-10-18T21:34:13.526Z,73.32
2022-10-18T21:39:35.158Z,73.60
2022-10-18T21:44:56.092Z,73.89
2022-10-18T21:50:16.873Z,73.12
2022-10-18T21:55:37.667Z,73.14
